Time;durP1;ratioP1;P1;durP2;ratioP2;P2;SDS_P1;SDS_P2;PMS_P1;PMS_P2;Temp;Humidity;BMP_temperature;BMP_pressure;BME280_temperature;BME280_humidity;BME280_pressure;Samples;Min_cycle;Max_cycle;Signal;HPM_P1;HPM_P2
2022/08/26 02:08:34;;;;;;;8.43;8.03;;;24.80;45.30;;;;;;4990080;28;20539;-63
2022/08/26 02:11:00;;;;;;;8.27;7.77;;;24.70;45.20;;;;;;4996577;28;21070;-63
2022/08/26 02:13:28;;;;;;;9.23;8.63;;;24.80;45.30;;;;;;4999514;28;20476;-63
2022/08/26 02:15:57;;;;;;;8.73;8.23;;;24.70;45.20;;;;;;5014747;28;20451;-62
2022/08/26 02:18:26;;;;;;;8.93;8.33;;;24.80;45.30;;;;;;5007241;28;20492;-63
2022/08/26 02:20:54;;;;;;;8.63;8.13;;;24.80;46.10;;;;;;4987134;28;20456;-63
2022/08/26 02:23:21;;;;;;;8.93;8.43;;;24.80;45.30;;;;;;5011345;28;20878;-62
2022/08/26 02:25:55;;;;;;;9.53;8.97;;;24.80;45.40;;;;;;4998606;28;20563;-62
2022/08/26 02:28:20;;;;;;;8.07;7.60;;;24.80;45.40;;;;;;4992494;28;20462;-63
2022/08/26 02:30:47;;;;;;;9.23;8.73;;;24.80;45.40;;;;;;4996622;28;20441;-62
2022/08/26 02:33:14;;;;;;;8.73;8.20;;;24.80;45.40;;;;;;5003975;28;20261;-63
2022/08/26 02:35:41;;;;;;;9.43;8.77;;;24.80;45.40;;;;;;5025439;28;20440;-62
2022/08/26 02:38:07;;;;;;;8.50;8.10;;;24.80;45.50;;;;;;4983659;28;20478;-63
2022/08/26 02:40:39;;;;;;;8.93;8.43;;;24.80;45.50;;;;;;4956922;28;21173;-63
2022/08/26 02:43:05;;;;;;;8.97;8.37;;;24.80;45.50;;;;;;4983257;28;20455;-63
2022/08/26 02:45:35;;;;;;;8.33;7.93;;;24.80;45.60;;;;;;4995018;28;20471;-63
2022/08/26 02:48:10;;;;;;;9.10;8.57;;;24.80;45.50;;;;;;4993785;28;20974;-63
2022/08/26 02:50:40;;;;;;;8.80;8.30;;;24.80;45.50;;;;;;5006195;28;20462;-63
2022/08/26 02:53:09;;;;;;;8.47;7.97;;;24.80;45.50;;;;;;4988443;28;20447;-62
2022/08/26 02:55:36;;;;;;;8.73;8.23;;;24.80;45.60;;;;;;4994003;28;22166;-63
2022/08/26 02:58:02;;;;;;;8.23;7.57;;;24.80;45.60;;;;;;5007078;28;20465;-63
2022/08/26 03:00:30;;;;;;;7.93;7.40;;;24.80;45.60;;;;;;4992743;28;22796;-62
2022/08/26 03:02:58;;;;;;;7.97;7.47;;;24.80;45.60;;;;;;4982739;28;20734;-62
2022/08/26 03:05:25;;;;;;;7.90;7.50;;;24.80;45.60;;;;;;4978521;28;20461;-63
2022/08/26 03:07:54;;;;;;;8.70;8.20;;;24.80;45.60;;;;;;4979938;28;20479;-62
2022/08/26 03:10:21;;;;;;;8.37;7.90;;;24.80;45.60;;;;;;4977561;28;20491;-62
2022/08/26 03:12:47;;;;;;;9.17;8.57;;;24.80;45.70;;;;;;4994720;28;20464;-63
2022/08/26 03:15:15;;;;;;;8.60;8.10;;;24.80;45.70;;;;;;4958518;28;20472;-63
2022/08/26 03:17:42;;;;;;;8.73;8.23;;;24.80;45.70;;;;;;4965011;28;20858;-62
2022/08/26 03:20:08;;;;;;;8.00;7.60;;;24.80;45.70;;;;;;4989156;28;20889;-62
2022/08/26 03:22:35;;;;;;;8.60;8.00;;;24.80;45.70;;;;;;4967037;28;20919;-61
2022/08/26 03:25:02;;;;;;;8.00;7.60;;;24.80;45.80;;;;;;4974968;28;20492;-62
2022/08/26 03:27:28;;;;;;;9.40;8.77;;;24.80;45.80;;;;;;4994173;28;20835;-62
2022/08/26 03:32:39;;;;;;;8.47;7.87;;;24.80;45.80;;;;;;4996774;28;20253;-63
2022/08/26 03:35:05;;;;;;;8.80;8.20;;;24.80;45.80;;;;;;4982742;28;20523;-62
2022/08/26 03:37:31;;;;;;;9.33;8.63;;;24.80;45.90;;;;;;4989452;28;20892;-62
2022/08/26 03:39:58;;;;;;;9.47;8.87;;;24.80;45.90;;;;;;4995981;28;20473;-62
2022/08/26 03:42:23;;;;;;;8.17;7.63;;;24.80;46.00;;;;;;4996529;28;20513;-63
2022/08/26 03:44:52;;;;;;;8.60;8.20;;;24.80;46.00;;;;;;4969427;28;20968;-63
2022/08/26 03:47:18;;;;;;;9.70;9.03;;;24.80;46.10;;;;;;4970701;28;20227;-61
2022/08/26 03:49:43;;;;;;;8.40;8.00;;;24.80;46.00;;;;;;4995712;28;20480;-62
2022/08/26 03:52:10;;;;;;;7.07;6.67;;;24.80;46.10;;;;;;5010395;28;20252;-62
2022/08/26 03:54:36;;;;;;;8.43;7.93;;;24.80;46.00;;;;;;4991421;28;20226;-63
2022/08/26 03:57:02;;;;;;;9.10;8.37;;;24.80;46.10;;;;;;5008015;28;20896;-62
2022/08/26 03:59:28;;;;;;;7.80;7.40;;;24.80;46.10;;;;;;5000092;28;20266;-63
2022/08/26 04:01:55;;;;;;;7.83;7.33;;;24.80;46.10;;;;;;5002720;28;20727;-62
2022/08/26 04:04:20;;;;;;;8.93;8.17;;;24.80;46.10;;;;;;4999322;28;20227;-61
2022/08/26 04:06:50;;;;;;;8.30;7.70;;;24.80;46.20;;;;;;5001479;28;20463;-62
2022/08/26 04:09:19;;;;;;;8.20;7.70;;;24.80;46.10;;;;;;4992451;28;20717;-62
2022/08/26 04:11:47;;;;;;;8.10;7.60;;;24.80;46.20;;;;;;4997372;28;20551;-63
2022/08/26 04:14:17;;;;;;;9.30;8.50;;;24.80;46.30;;;;;;4984550;28;20482;-63
2022/08/26 04:16:44;;;;;;;7.83;7.33;;;24.80;46.30;;;;;;5012658;28;20532;-63
2022/08/26 04:19:12;;;;;;;7.40;7.00;;;24.80;46.30;;;;;;5001923;28;20534;-62
2022/08/26 04:21:41;;;;;;;7.30;6.90;;;24.80;46.30;;;;;;5007958;28;20492;-64
2022/08/26 04:24:12;;;;;;;7.33;6.83;;;24.80;46.30;;;;;;5007698;28;20464;-62
2022/08/26 04:26:39;;;;;;;7.00;6.70;;;24.80;46.30;;;;;;4996220;28;20452;-64
2022/08/26 04:29:19;;;;;;;8.33;7.73;;;24.80;46.30;;;;;;4997019;28;20556;-64
2022/08/26 04:31:47;;;;;;;9.10;8.60;;;24.90;46.20;;;;;;4986183;28;20479;-63
2022/08/26 04:34:13;;;;;;;9.60;9.00;;;24.90;46.20;;;;;;5000184;28;20475;-64
2022/08/26 04:36:40;;;;;;;9.00;8.50;;;25.00;46.20;;;;;;5004291;28;20449;-67
2022/08/26 04:39:08;;;;;;;8.80;8.20;;;25.00;46.20;;;;;;4986326;28;20243;-63
2022/08/26 04:41:35;;;;;;;9.27;8.57;;;25.00;46.20;;;;;;4987162;28;20519;-62
2022/08/26 04:44:05;;;;;;;10.27;9.57;;;25.00;46.10;;;;;;4991839;28;20459;-64
2022/08/26 04:46:32;;;;;;;9.47;8.97;;;25.00;46.10;;;;;;4978791;28;21149;-64
2022/08/26 04:48:58;;;;;;;9.30;8.70;;;25.00;46.10;;;;;;4992026;28;20583;-63
2022/08/26 04:51:26;;;;;;;8.90;8.40;;;25.00;46.10;;;;;;4989792;28;20973;-64
2022/08/26 04:53:56;;;;;;;9.40;8.80;;;25.00;46.10;;;;;;5001969;28;20879;-62
2022/08/26 04:56:27;;;;;;;9.27;8.70;;;25.00;46.20;;;;;;4996641;28;20463;-62
2022/08/26 04:58:53;;;;;;;10.27;9.57;;;25.00;46.20;;;;;;5009832;28;20475;-63
2022/08/26 05:01:19;;;;;;;8.73;8.13;;;25.00;46.20;;;;;;5000640;28;20697;-62
2022/08/26 05:03:46;;;;;;;9.20;8.70;;;25.00;46.30;;;;;;5007622;28;20242;-63
2022/08/26 05:06:12;;;;;;;10.13;9.43;;;25.00;46.30;;;;;;5010446;28;20487;-63
2022/08/26 05:08:39;;;;;;;9.10;8.60;;;25.00;46.30;;;;;;5010086;28;20535;-64
2022/08/26 05:11:06;;;;;;;9.50;9.00;;;25.00;46.30;;;;;;5005226;28;20871;-63
2022/08/26 05:13:33;;;;;;;9.67;9.07;;;25.00;46.30;;;;;;5012674;28;20453;-64
2022/08/26 05:16:09;;;;;;;10.17;9.47;;;25.00;46.40;;;;;;5004152;28;20525;-62
2022/08/26 05:18:36;;;;;;;9.20;8.70;;;25.00;47.10;;;;;;5000891;28;21801;-63
2022/08/26 05:21:04;;;;;;;9.70;9.17;;;25.00;46.30;;;;;;4994571;28;20475;-62
2022/08/26 05:23:31;;;;;;;9.73;9.13;;;25.00;46.30;;;;;;4989386;28;20465;-65
2022/08/26 05:25:58;;;;;;;9.93;9.23;;;25.00;46.40;;;;;;4995356;28;20463;-64
2022/08/26 05:28:28;;;;;;;9.43;8.93;;;25.10;46.40;;;;;;5011485;28;21181;-64
2022/08/26 05:30:54;;;;;;;9.83;9.30;;;25.00;46.40;;;;;;4998725;28;20472;-69
2022/08/26 05:33:21;;;;;;;8.43;8.00;;;25.00;46.40;;;;;;4993042;28;20609;-66
2022/08/26 05:35:47;;;;;;;8.40;7.90;;;25.00;46.40;;;;;;4996895;28;20529;-68
2022/08/26 05:38:17;;;;;;;8.60;8.20;;;25.00;46.40;;;;;;5015970;28;20802;-65
2022/08/26 05:40:47;;;;;;;8.50;8.03;;;25.00;46.40;;;;;;5008780;28;20586;-64
2022/08/26 05:43:15;;;;;;;9.50;8.90;;;25.00;46.40;;;;;;5019870;28;20485;-64
2022/08/26 05:45:48;;;;;;;8.87;8.33;;;25.00;46.50;;;;;;5021979;28;20472;-63
2022/08/26 05:48:17;;;;;;;8.20;7.70;;;25.00;46.40;;;;;;4997461;28;20524;-62
2022/08/26 05:50:48;;;;;;;8.70;8.20;;;25.00;46.40;;;;;;5020400;28;20457;-63
2022/08/26 05:53:19;;;;;;;8.50;8.00;;;25.00;46.40;;;;;;5021301;28;20456;-63
2022/08/26 05:55:50;;;;;;;8.10;7.70;;;25.00;46.40;;;;;;4989871;28;21180;-63
2022/08/26 05:58:21;;;;;;;9.33;8.57;;;25.00;46.40;;;;;;5019785;28;20478;-61
2022/08/26 06:01:09;;;;;;;7.40;7.00;;;25.00;46.50;;;;;;5014476;28;20534;-63
2022/08/26 06:03:38;;;;;;;7.43;7.03;;;25.00;46.40;;;;;;5002192;28;21531;-63
2022/08/26 06:06:13;;;;;;;8.40;7.90;;;25.00;46.50;;;;;;5001617;28;20553;-62
2022/08/26 06:08:39;;;;;;;8.67;8.13;;;25.00;46.50;;;;;;4994263;28;20475;-63
2022/08/26 06:11:08;;;;;;;7.73;7.33;;;25.00;46.50;;;;;;5001961;28;20472;-63
2022/08/26 06:13:34;;;;;;;7.70;7.40;;;25.00;46.50;;;;;;4987258;28;20460;-64
2022/08/26 06:16:05;;;;;;;8.20;7.80;;;25.00;46.50;;;;;;4991592;28;20453;-61
2022/08/26 06:18:35;;;;;;;7.60;7.20;;;25.00;46.50;;;;;;4991794;28;20583;-63
2022/08/26 06:21:26;;;;;;;8.10;7.60;;;25.00;46.50;;;;;;4994693;28;20541;-63
2022/08/26 06:26:46;;;;;;;7.97;7.57;;;25.00;46.50;;;;;;5012572;28;20507;-63
2022/08/26 06:29:12;;;;;;;7.53;6.93;;;25.00;46.50;;;;;;5003624;28;20531;-63
2022/08/26 06:31:38;;;;;;;7.73;7.27;;;25.00;46.50;;;;;;5001875;28;20963;-63
2022/08/26 06:34:05;;;;;;;7.00;6.63;;;25.00;46.50;;;;;;4994215;28;20309;-62
2022/08/26 06:36:32;;;;;;;7.20;6.80;;;25.00;46.50;;;;;;4980763;28;20463;-62
2022/08/26 06:39:05;;;;;;;6.20;5.90;;;25.00;46.50;;;;;;4987772;28;20491;-63
2022/08/26 06:41:32;;;;;;;6.57;6.17;;;25.00;46.50;;;;;;4999904;28;20475;-60
2022/08/26 06:44:02;;;;;;;6.73;6.43;;;25.00;46.50;;;;;;5004111;28;20499;-63
2022/08/26 06:46:31;;;;;;;7.37;6.97;;;25.00;46.50;;;;;;5000159;28;20471;-64
2022/08/26 06:48:57;;;;;;;6.90;6.40;;;25.00;46.60;;;;;;4999006;28;20469;-62
2022/08/26 06:51:27;;;;;;;6.53;6.23;;;25.00;46.60;;;;;;4997019;28;20464;-63
2022/08/26 06:53:55;;;;;;;6.70;6.30;;;25.00;46.60;;;;;;4997720;28;20457;-61
2022/08/26 06:56:23;;;;;;;6.33;5.90;;;25.00;46.50;;;;;;5001125;28;20494;-61
2022/08/26 06:58:49;;;;;;;5.87;5.50;;;25.00;46.60;;;;;;5005523;28;20809;-62
2022/08/26 07:01:23;;;;;;;6.93;6.53;;;25.00;46.60;;;;;;4991257;28;20544;-63
2022/08/26 07:03:52;;;;;;;7.03;6.63;;;25.00;46.60;;;;;;5009556;28;20222;-63
2022/08/26 07:06:22;;;;;;;6.27;5.90;;;25.00;46.60;;;;;;4987552;28;20539;-62
2022/08/26 07:08:51;;;;;;;5.50;5.20;;;25.00;46.60;;;;;;4985119;28;20473;-63
2022/08/26 07:11:19;;;;;;;6.30;6.00;;;25.00;46.60;;;;;;4990127;28;20463;-61
2022/08/26 07:13:46;;;;;;;5.80;5.50;;;25.00;46.60;;;;;;4984326;28;20475;-63
2022/08/26 07:16:16;;;;;;;6.30;6.00;;;25.00;46.70;;;;;;4976869;28;20472;-64
2022/08/26 07:18:44;;;;;;;15.23;6.97;;;25.00;47.50;;;;;;4997846;28;20488;-65
2022/08/26 07:21:12;;;;;;;18.07;7.77;;;25.00;46.80;;;;;;5001841;28;20494;-63
2022/08/26 07:23:40;;;;;;;16.00;6.73;;;25.10;47.00;;;;;;5008346;28;21780;-63
2022/08/26 07:26:09;;;;;;;11.47;6.70;;;25.10;47.10;;;;;;4998592;28;22165;-63
2022/08/26 07:28:34;;;;;;;312.97;19.13;;;25.10;47.30;;;;;;4999887;28;20614;-65
2022/08/26 07:31:07;;;;;;;32.00;8.27;;;25.10;47.60;;;;;;5008987;28;20456;-63
2022/08/26 07:33:35;;;;;;;35.93;8.30;;;25.10;47.80;;;;;;5005373;28;20244;-62
2022/08/26 07:36:02;;;;;;;19.50;6.63;;;25.10;48.20;;;;;;4986459;28;20469;-65
2022/08/26 07:38:28;;;;;;;34.83;7.33;;;25.10;48.40;;;;;;5006386;28;21056;-65
2022/08/26 07:40:54;;;;;;;8.00;6.00;;;25.20;48.50;;;;;;5003583;28;20459;-65
2022/08/26 08:19:29;;;;;;;33.47;7.47;;;24.80;48.20;;;;;;6135613;22;1513092;-64
2022/08/26 08:21:55;;;;;;;75.60;17.37;;;25.60;51.20;;;;;;6187043;22;20206;-62
2022/08/26 08:24:21;;;;;;;39.73;12.20;;;25.50;51.40;;;;;;6183573;22;20263;-63
2022/08/26 08:26:46;;;;;;;10.90;7.10;;;25.40;51.50;;;;;;6182398;22;20773;-66
2022/08/26 08:29:13;;;;;;;32.93;11.63;;;25.40;51.50;;;;;;6177445;22;20220;-61
2022/08/26 08:31:40;;;;;;;15.37;8.30;;;25.30;51.40;;;;;;6180306;22;20253;-65
2022/08/26 08:34:06;;;;;;;21.07;9.07;;;25.30;51.40;;;;;;6179519;22;20430;-66
2022/08/26 08:36:33;;;;;;;15.13;7.30;;;25.30;51.20;;;;;;6173266;22;20442;-63
2022/08/26 08:38:59;;;;;;;13.63;7.10;;;25.30;51.10;;;;;;6180645;22;20419;-63
2022/08/26 08:41:36;;;;;;;13.07;7.30;;;25.20;51.00;;;;;;6180680;22;20411;-62
2022/08/26 08:44:03;;;;;;;9.57;6.70;;;25.20;50.90;;;;;;6163697;23;20430;-62
2022/08/26 08:46:30;;;;;;;11.77;6.87;;;25.20;50.80;;;;;;6181982;23;20774;-65
2022/08/26 08:48:58;;;;;;;7.70;5.33;;;25.20;50.70;;;;;;6179880;23;20494;-62
2022/08/26 08:51:49;;;;;;;9.30;5.07;;;25.20;50.60;;;;;;6175307;23;21262;-65
2022/08/26 08:54:16;;;;;;;7.20;5.30;;;25.10;50.40;;;;;;6175917;22;20411;-65
2022/08/26 08:57:23;;;;;;;4.30;3.90;;;25.10;50.30;;;;;;6175805;22;20404;-64
2022/08/26 09:00:01;;;;;;;5.10;3.87;;;25.10;50.20;;;;;;6155858;22;20858;-63
2022/08/26 09:02:34;;;;;;;4.33;3.93;;;25.10;50.20;;;;;;6156766;23;20415;-63
2022/08/26 09:05:30;;;;;;;4.50;3.80;;;25.10;50.10;;;;;;6170972;22;20913;-63
2022/08/26 09:08:00;;;;;;;4.27;3.97;;;25.10;50.00;;;;;;6177474;22;20431;-62
2022/08/26 09:11:08;;;;;;;3.97;3.67;;;25.10;50.00;;;;;;6179175;22;20427;-63
2022/08/26 09:13:36;;;;;;;5.03;4.70;;;25.10;49.80;;;;;;6019745;23;20866;-63
2022/08/26 09:16:23;;;;;;;4.67;4.27;;;25.10;49.80;;;;;;6123572;22;20416;-65
2022/08/26 09:19:11;;;;;;;5.53;3.87;;;25.10;49.60;;;;;;6196394;22;20461;-65
2022/08/26 09:21:38;;;;;;;4.20;3.80;;;25.10;49.60;;;;;;6189705;22;20420;-62
2022/08/26 09:24:04;;;;;;;5.33;4.27;;;25.10;49.50;;;;;;6168196;23;20473;-62
2022/08/26 09:26:42;;;;;;;4.07;3.67;;;25.10;49.50;;;;;;6179229;22;20412;-61
2022/08/26 09:29:22;;;;;;;4.20;3.90;;;25.10;49.30;;;;;;6201505;22;20423;-61
2022/08/26 09:31:48;;;;;;;4.50;3.73;;;25.10;49.30;;;;;;6182295;22;20422;-62
2022/08/26 09:34:18;;;;;;;4.50;3.80;;;25.10;49.10;;;;;;6195853;22;20424;-61
2022/08/26 09:36:47;;;;;;;3.60;3.30;;;25.00;49.10;;;;;;6199416;22;20466;-61
2022/08/26 09:39:36;;;;;;;4.50;3.43;;;25.10;49.10;;;;;;6198442;22;20407;-65
2022/08/26 09:42:01;;;;;;;3.70;3.33;;;25.10;49.10;;;;;;6170478;22;20423;-64
2022/08/26 09:44:27;;;;;;;6.20;3.37;;;25.00;49.10;;;;;;6187513;22;20430;-70
2022/08/26 09:46:57;;;;;;;4.37;3.60;;;25.00;49.10;;;;;;6118167;23;20209;-62
2022/08/26 09:49:38;;;;;;;4.13;3.83;;;25.00;49.10;;;;;;6158487;22;20444;-63
2022/08/26 09:52:12;;;;;;;3.03;2.83;;;25.00;49.10;;;;;;6171537;22;20507;-63
2022/08/26 09:54:39;;;;;;;3.27;3.07;;;25.00;49.10;;;;;;6167518;22;20420;-67
2022/08/26 09:57:26;;;;;;;3.80;3.60;;;25.00;49.10;;;;;;6170416;22;20428;-64
2022/08/26 09:59:52;;;;;;;5.07;3.33;;;25.00;49.10;;;;;;6169893;23;20486;-65
2022/08/26 10:02:36;;;;;;;3.20;3.00;;;25.00;49.10;;;;;;6176969;23;20725;-63
2022/08/26 10:05:07;;;;;;;3.33;3.13;;;25.00;49.10;;;;;;6166562;22;20933;-70
2022/08/26 10:07:40;;;;;;;3.63;3.33;;;25.00;49.10;;;;;;6189086;22;20961;-64
2022/08/26 10:10:37;;;;;;;2.83;2.73;;;25.00;49.10;;;;;;6190337;22;20420;-61
2022/08/26 10:13:41;;;;;;;3.37;3.17;;;25.00;49.10;;;;;;6186950;22;20419;-64
2022/08/26 10:16:26;;;;;;;4.13;3.83;;;25.10;49.10;;;;;;6079754;23;20819;-61
2022/08/26 10:19:32;;;;;;;3.00;2.80;;;25.10;49.10;;;;;;6194767;22;20440;-64
2022/08/26 10:22:19;;;;;;;3.23;3.03;;;25.00;49.10;;;;;;6034406;23;20423;-69
2022/08/26 10:24:49;;;;;;;3.97;3.50;;;25.10;49.10;;;;;;6163081;23;20559;-62
2022/08/26 10:27:38;;;;;;;3.27;3.13;;;25.10;49.10;;;;;;6194601;22;20522;-68
2022/08/26 10:30:09;;;;;;;3.00;2.80;;;25.10;49.10;;;;;;6174928;22;20427;-66
2022/08/26 10:32:40;;;;;;;12.50;4.03;;;25.10;49.10;;;;;;6196275;22;20419;-66
2022/08/26 10:35:10;;;;;;;45.23;5.90;;;25.10;49.10;;;;;;6189946;22;20426;-66
2022/08/26 10:37:47;;;;;;;15.63;4.60;;;25.10;49.10;;;;;;6197409;22;20415;-62
2022/08/26 10:40:24;;;;;;;10.33;3.90;;;25.10;49.10;;;;;;6188339;22;20877;-65
2022/08/26 10:43:04;;;;;;;4.50;4.10;;;25.10;49.10;;;;;;6194438;22;20423;-65
2022/08/26 10:45:34;;;;;;;7.73;4.00;;;25.10;49.30;;;;;;6197732;22;20426;-62
2022/08/26 10:48:09;;;;;;;7.53;3.47;;;25.10;49.60;;;;;;6197847;22;20423;-64
2022/08/26 10:50:38;;;;;;;5.20;3.23;;;25.10;49.80;;;;;;6194045;22;20562;-62
2022/08/26 10:53:38;;;;;;;7.10;3.47;;;25.10;50.70;;;;;;6199925;22;20420;-63
2022/08/26 10:56:21;;;;;;;18.63;4.03;;;25.10;50.10;;;;;;6200824;22;20424;-63
2022/08/26 10:58:58;;;;;;;7.00;4.10;;;25.10;51.00;;;;;;6190407;23;20442;-62
2022/08/26 11:01:42;;;;;;;6.80;3.57;;;25.20;51.30;;;;;;6195117;22;20454;-60
2022/08/26 11:04:50;;;;;;;8.33;4.00;;;25.20;51.50;;;;;;6203872;22;20454;-59
2022/08/26 11:07:32;;;;;;;3.63;3.33;;;25.20;51.60;;;;;;6195263;22;20459;-60
2022/08/26 11:10:08;;;;;;;4.23;3.57;;;25.20;51.80;;;;;;6203710;22;20880;-60
2022/08/26 11:12:37;;;;;;;5.83;3.50;;;25.20;51.90;;;;;;6204798;22;20423;-64
2022/08/26 11:15:28;;;;;;;7.37;3.03;;;25.20;51.90;;;;;;6200732;22;20642;-60
2022/08/26 11:18:00;;;;;;;3.80;3.50;;;25.20;51.80;;;;;;6201464;23;20474;-62
2022/08/26 11:20:32;;;;;;;3.30;3.10;;;25.20;51.80;;;;;;6205703;22;20447;-60
2022/08/26 11:23:27;;;;;;;3.63;3.43;;;25.20;51.80;;;;;;6200146;22;20404;-60
2022/08/26 11:25:55;;;;;;;2.87;2.67;;;25.20;51.70;;;;;;6134161;23;20416;-60
2022/08/26 11:28:44;;;;;;;5.30;3.20;;;25.20;51.70;;;;;;6204355;22;20449;-66
2022/08/26 11:31:25;;;;;;;6.67;2.57;;;25.20;51.60;;;;;;6169594;22;20420;-61
2022/08/26 11:33:56;;;;;;;4.33;3.27;;;25.20;51.50;;;;;;6170432;23;20487;-60
2022/08/26 11:36:38;;;;;;;13.03;3.77;;;25.20;51.50;;;;;;6169198;22;20423;-61
2022/08/26 11:39:19;;;;;;;4.70;3.07;;;25.10;51.40;;;;;;6200315;23;20494;-60
2022/08/26 11:41:48;;;;;;;4.63;2.80;;;25.20;51.40;;;;;;6186805;23;20415;-61
2022/08/26 11:44:19;;;;;;;5.00;3.40;;;25.10;51.30;;;;;;6200087;22;20414;-61
2022/08/26 11:46:59;;;;;;;4.90;3.57;;;25.10;51.20;;;;;;6203715;22;20944;-60
2022/08/26 11:49:27;;;;;;;3.60;2.57;;;25.10;51.20;;;;;;6199154;22;20431;-60
2022/08/26 11:52:14;;;;;;;7.37;2.93;;;25.10;51.20;;;;;;6198263;22;20780;-60
2022/08/26 11:54:57;;;;;;;6.30;3.10;;;25.20;51.20;;;;;;6184887;22;20911;-61
2022/08/26 11:57:23;;;;;;;2.60;2.50;;;25.10;51.10;;;;;;6203702;22;20419;-63
2022/08/26 11:59:48;;;;;;;2.60;2.40;;;25.10;51.10;;;;;;6201067;22;20427;-62
2022/08/26 12:02:16;;;;;;;7.10;3.00;;;25.10;51.00;;;;;;6203042;22;20525;-65
2022/08/26 12:04:47;;;;;;;3.10;2.80;;;25.10;51.00;;;;;;6201787;22;20213;-60
2022/08/26 12:07:14;;;;;;;6.43;3.33;;;25.10;50.90;;;;;;6199825;22;20615;-61
2022/08/26 12:09:57;;;;;;;4.30;2.60;;;25.10;50.90;;;;;;6194258;22;20432;-65
2022/08/26 12:12:30;;;;;;;3.57;2.30;;;25.10;50.80;;;;;;6199316;22;20419;-64
2022/08/26 12:15:06;;;;;;;4.30;2.47;;;25.10;50.70;;;;;;6197511;22;20498;-61
2022/08/26 12:17:32;;;;;;;3.10;2.90;;;25.10;50.70;;;;;;6204476;22;20419;-62
2022/08/26 12:19:57;;;;;;;3.17;2.87;;;25.10;50.60;;;;;;6203054;22;20461;-60
2022/08/26 12:22:28;;;;;;;2.77;2.57;;;25.10;50.50;;;;;;6202247;22;20200;-69
2022/08/26 12:25:03;;;;;;;2.80;2.50;;;25.10;50.50;;;;;;6198165;22;20208;-63
2022/08/26 12:27:35;;;;;;;4.50;2.60;;;25.10;50.50;;;;;;6203858;22;20438;-61
2022/08/26 12:30:10;;;;;;;2.70;2.60;;;25.10;50.40;;;;;;6197802;22;21019;-59
2022/08/26 12:32:39;;;;;;;2.47;2.37;;;25.10;50.40;;;;;;6198124;22;20411;-59
2022/08/26 12:35:16;;;;;;;2.57;2.37;;;25.10;50.30;;;;;;6195182;23;20411;-63
2022/08/26 12:37:45;;;;;;;2.50;2.30;;;25.10;50.30;;;;;;6201739;22;20906;-61
2022/08/26 12:40:24;;;;;;;2.10;2.00;;;25.10;50.20;;;;;;6177917;22;20595;-62
2022/08/26 12:42:50;;;;;;;2.17;2.07;;;25.10;51.00;;;;;;6205071;22;20415;-59
2022/08/26 12:45:29;;;;;;;2.30;2.20;;;25.10;50.20;;;;;;6204765;22;20676;-60
2022/08/26 12:47:58;;;;;;;2.13;2.03;;;25.10;50.10;;;;;;6204730;22;20431;-60
2022/08/26 12:50:31;;;;;;;2.60;2.23;;;25.10;50.20;;;;;;6204546;22;20411;-64
2022/08/26 12:53:21;;;;;;;2.13;2.03;;;25.10;50.10;;;;;;6204466;22;20551;-60
2022/08/26 12:56:17;;;;;;;2.63;2.53;;;25.10;50.00;;;;;;6184285;22;20446;-62
2022/08/26 12:58:43;;;;;;;2.40;2.20;;;25.10;50.00;;;;;;6147866;23;20498;-63
2022/08/26 13:01:08;;;;;;;2.30;2.13;;;25.10;49.90;;;;;;6172741;23;20463;-64
2022/08/26 13:03:34;;;;;;;3.67;2.30;;;25.10;49.80;;;;;;6173025;23;20185;-62
2022/08/26 13:06:11;;;;;;;2.30;2.03;;;25.10;49.80;;;;;;6189058;22;20194;-64
2022/08/26 13:08:46;;;;;;;2.33;2.23;;;25.00;49.70;;;;;;6187855;22;20206;-65
2022/08/26 13:11:17;;;;;;;2.00;1.90;;;25.00;49.60;;;;;;6201557;22;20410;-63
2022/08/26 13:13:44;;;;;;;2.03;1.93;;;25.00;49.60;;;;;;6197760;22;20498;-62
2022/08/26 13:16:10;;;;;;;2.03;1.93;;;25.00;49.60;;;;;;6200037;22;20462;-62
2022/08/26 13:18:36;;;;;;;2.00;1.90;;;25.00;49.50;;;;;;6200369;22;20438;-61
2022/08/26 13:21:09;;;;;;;2.57;2.20;;;25.00;49.50;;;;;;6173658;23;20411;-63
2022/08/26 13:23:35;;;;;;;1.87;1.77;;;25.00;49.40;;;;;;6201343;23;20190;-66
2022/08/26 13:26:01;;;;;;;1.80;1.70;;;25.00;49.40;;;;;;6205243;23;20768;-63
2022/08/26 13:28:26;;;;;;;2.43;2.23;;;25.00;49.40;;;;;;6203250;23;20236;-65
2022/08/26 13:30:52;;;;;;;1.87;1.77;;;25.00;49.30;;;;;;6204013;23;20265;-63
2022/08/26 13:33:18;;;;;;;2.20;2.10;;;25.00;49.40;;;;;;6192853;23;20193;-62
2022/08/26 13:35:43;;;;;;;2.23;2.03;;;25.00;49.20;;;;;;6204528;22;20193;-61
2022/08/26 13:38:13;;;;;;;2.00;1.90;;;25.00;49.20;;;;;;6192606;22;20427;-65
2022/08/26 13:40:42;;;;;;;2.13;2.00;;;25.00;49.10;;;;;;6196455;22;20207;-60
2022/08/26 13:43:08;;;;;;;2.10;2.00;;;25.00;49.20;;;;;;6188027;22;20594;-66
2022/08/26 13:45:33;;;;;;;2.00;1.90;;;25.00;49.10;;;;;;6203564;22;20824;-65
2022/08/26 13:47:59;;;;;;;1.87;1.77;;;25.00;49.10;;;;;;6199077;22;20205;-60
2022/08/26 13:50:24;;;;;;;3.50;1.67;;;25.00;49.10;;;;;;6195379;22;20189;-66
2022/08/26 13:52:50;;;;;;;2.20;2.03;;;25.00;49.10;;;;;;6199810;22;20632;-66
2022/08/26 13:55:16;;;;;;;2.10;1.80;;;25.00;49.10;;;;;;6200046;22;20193;-60
2022/08/26 13:57:41;;;;;;;1.70;1.60;;;25.00;49.10;;;;;;6201355;22;20229;-66
2022/08/26 14:00:08;;;;;;;1.90;1.80;;;25.00;49.10;;;;;;6203847;22;20185;-63
2022/08/26 14:02:34;;;;;;;1.80;1.70;;;25.00;49.10;;;;;;6197778;22;20602;-62
2022/08/26 14:05:00;;;;;;;2.03;1.80;;;25.00;49.10;;;;;;6198668;22;20438;-63
2022/08/26 14:07:25;;;;;;;1.97;1.83;;;25.00;49.10;;;;;;6200438;22;20523;-62
2022/08/26 14:09:51;;;;;;;8.77;2.37;;;25.00;49.10;;;;;;6201122;22;20236;-62
2022/08/26 14:12:17;;;;;;;10.20;2.50;;;25.00;49.10;;;;;;6203899;22;20609;-60
2022/08/26 14:14:42;;;;;;;4.63;2.33;;;25.10;49.10;;;;;;6199438;22;20251;-63
2022/08/26 14:17:08;;;;;;;3.13;1.70;;;25.10;49.10;;;;;;6203587;22;20201;-64
2022/08/26 14:19:34;;;;;;;3.07;2.00;;;25.10;49.10;;;;;;6194921;22;20292;-65
2022/08/26 14:22:00;;;;;;;2.30;1.50;;;25.10;49.10;;;;;;6196249;22;20483;-60
2022/08/26 14:24:26;;;;;;;2.17;1.53;;;25.10;49.10;;;;;;6192846;22;20194;-59
2022/08/26 14:26:51;;;;;;;1.80;1.70;;;25.10;49.10;;;;;;6198992;22;20442;-65
2022/08/26 14:29:17;;;;;;;4.60;1.70;;;25.10;49.10;;;;;;6200065;22;20194;-59
2022/08/26 14:31:43;;;;;;;3.20;2.27;;;25.10;49.10;;;;;;6201114;22;20217;-63
2022/08/26 14:34:12;;;;;;;2.60;1.50;;;25.10;49.10;;;;;;6198186;22;20194;-65
2022/08/26 14:36:38;;;;;;;3.80;1.60;;;25.10;49.10;;;;;;6197603;22;20435;-63
2022/08/26 14:39:07;;;;;;;1.93;1.60;;;25.10;48.80;;;;;;6199907;22;20774;-61
2022/08/26 14:41:36;;;;;;;4.67;1.60;;;25.10;48.60;;;;;;6195873;22;20205;-61
2022/08/26 14:44:06;;;;;;;7.50;2.23;;;25.10;48.40;;;;;;6199400;22;20400;-62
2022/08/26 14:46:45;;;;;;;5.43;1.83;;;25.20;48.40;;;;;;6201774;23;20415;-60
2022/08/26 14:49:12;;;;;;;1.53;1.43;;;25.10;48.20;;;;;;6198842;23;20427;-62
2022/08/26 14:51:39;;;;;;;2.50;2.03;;;25.10;48.10;;;;;;6183870;22;20416;-61
2022/08/26 14:54:12;;;;;;;1.53;1.43;;;25.10;48.10;;;;;;6195428;22;20412;-60
2022/08/26 14:56:52;;;;;;;2.23;1.40;;;25.10;48.00;;;;;;6178998;22;20487;-61
2022/08/26 14:59:25;;;;;;;1.70;1.40;;;25.10;48.00;;;;;;6199288;22;20877;-68
2022/08/26 15:01:51;;;;;;;1.60;1.50;;;25.10;48.00;;;;;;6201654;22;20420;-61
2022/08/26 15:04:18;;;;;;;1.60;1.50;;;25.10;48.00;;;;;;6197445;22;20455;-64
2022/08/26 15:06:43;;;;;;;4.13;1.80;;;25.10;47.80;;;;;;6199481;22;20423;-61
2022/08/26 15:09:09;;;;;;;1.60;1.50;;;25.10;47.80;;;;;;6200221;22;20431;-64
2022/08/26 15:11:35;;;;;;;2.33;2.13;;;25.10;47.80;;;;;;6200086;22;20192;-62
2022/08/26 15:14:01;;;;;;;2.83;1.87;;;25.10;47.70;;;;;;6198725;22;20491;-66
2022/08/26 15:16:27;;;;;;;4.60;2.10;;;25.20;47.80;;;;;;6200898;22;20232;-61
2022/08/26 15:18:54;;;;;;;2.03;1.67;;;25.10;47.70;;;;;;6201243;22;20217;-62
2022/08/26 15:21:19;;;;;;;2.10;1.40;;;25.10;47.80;;;;;;6198428;22;20725;-66
2022/08/26 15:23:46;;;;;;;1.90;1.80;;;25.10;48.00;;;;;;6200690;22;20940;-64
2022/08/26 15:26:13;;;;;;;1.93;1.60;;;25.10;47.90;;;;;;6200210;22;20204;-67
2022/08/26 15:28:39;;;;;;;1.80;1.63;;;25.10;48.00;;;;;;6200741;22;20462;-64
2022/08/26 15:31:06;;;;;;;2.90;1.50;;;25.10;48.10;;;;;;6199930;22;21057;-63
2022/08/26 15:33:33;;;;;;;1.83;1.73;;;25.10;48.10;;;;;;6202474;22;20407;-62
2022/08/26 15:36:00;;;;;;;1.70;1.60;;;25.10;48.20;;;;;;6202493;22;20419;-62
2022/08/26 15:38:30;;;;;;;1.87;1.77;;;25.10;48.20;;;;;;6193969;22;20423;-61
2022/08/26 15:40:58;;;;;;;1.83;1.73;;;25.10;48.20;;;;;;6194123;22;20502;-61
2022/08/26 15:43:25;;;;;;;1.50;1.40;;;25.10;48.20;;;;;;6198161;23;20490;-61
2022/08/26 15:45:51;;;;;;;1.70;1.60;;;25.10;48.30;;;;;;6191051;22;20444;-65
2022/08/26 15:48:17;;;;;;;1.90;1.80;;;25.10;48.30;;;;;;6201397;22;20870;-60
2022/08/26 15:50:55;;;;;;;1.70;1.60;;;25.10;48.40;;;;;;6198632;22;20940;-64
2022/08/26 15:53:21;;;;;;;1.70;1.60;;;25.10;48.30;;;;;;6199381;22;20415;-63